sensor_id;sensor_type;location;lat;lon;timestamp;pressure;altitude;pressure_sealevel;temperature;humidity
19831;BME280;10076;52.008;4.708;2024-03-23T00:54:04;101126.19;;;10.01;100.00
19831;BME280;10076;52.008;4.708;2024-03-23T00:56:29;101119.78;;;9.91;100.00
19831;BME280;10076;52.008;4.708;2024-03-23T00:58:55;101128.63;;;9.90;100.00
19831;BME280;10076;52.008;4.708;2024-03-23T01:01:20;101116.50;;;9.87;100.00
19831;BME280;10076;52.008;4.708;2024-03-23T01:03:46;101109.63;;;9.85;100.00
19831;BME280;10076;52.008;4.708;2024-03-23T01:06:11;101099.91;;;9.85;100.00
19831;BME280;10076;52.008;4.708;2024-03-23T01:08:36;101094.69;;;9.71;100.00
19831;BME280;10076;52.008;4.708;2024-03-23T01:11:02;101106.91;;;9.59;100.00
19831;BME280;10076;52.008;4.708;2024-03-23T01:13:30;101103.91;;;9.64;100.00
19831;BME280;10076;52.008;4.708;2024-03-23T01:15:56;101098.94;;;9.46;100.00
19831;BME280;10076;52.008;4.708;2024-03-23T01:18:24;101100.72;;;9.32;100.00
19831;BME280;10076;52.008;4.708;2024-03-23T01:20:51;101100.59;;;9.19;100.00
19831;BME280;10076;52.008;4.708;2024-03-23T01:23:17;101097.53;;;9.27;100.00
19831;BME280;10076;52.008;4.708;2024-03-23T01:25:42;101095.53;;;9.16;100.00
19831;BME280;10076;52.008;4.708;2024-03-23T01:28:08;101092.81;;;9.04;100.00
19831;BME280;10076;52.008;4.708;2024-03-23T01:30:34;101103.81;;;9.10;100.00
19831;BME280;10076;52.008;4.708;2024-03-23T01:33:00;101099.44;;;8.95;100.00
19831;BME280;10076;52.008;4.708;2024-03-23T01:35:25;101092.34;;;9.11;100.00
19831;BME280;10076;52.008;4.708;2024-03-23T01:37:51;101094.31;;;9.08;100.00
19831;BME280;10076;52.008;4.708;2024-03-23T01:40:16;101091.56;;;9.09;100.00
19831;BME280;10076;52.008;4.708;2024-03-23T01:42:42;101094.47;;;8.91;100.00
19831;BME280;10076;52.008;4.708;2024-03-23T01:45:08;101092.31;;;8.84;100.00
19831;BME280;10076;52.008;4.708;2024-03-23T01:47:34;101087.50;;;8.90;100.00
19831;BME280;10076;52.008;4.708;2024-03-23T01:49:59;101086.16;;;8.69;100.00
19831;BME280;10076;52.008;4.708;2024-03-23T01:52:25;101082.69;;;8.83;100.00
19831;BME280;10076;52.008;4.708;2024-03-23T01:54:52;101089.75;;;8.82;100.00
19831;BME280;10076;52.008;4.708;2024-03-23T01:57:18;101083.31;;;8.72;100.00
19831;BME280;10076;52.008;4.708;2024-03-23T01:59:43;101088.22;;;8.78;100.00
19831;BME280;10076;52.008;4.708;2024-03-23T02:02:09;101077.00;;;8.61;100.00
19831;BME280;10076;52.008;4.708;2024-03-23T02:04:34;101079.09;;;8.70;100.00
19831;BME280;10076;52.008;4.708;2024-03-23T02:06:59;101074.59;;;8.72;100.00
19831;BME280;10076;52.008;4.708;2024-03-23T02:09:25;101080.38;;;8.63;100.00
19831;BME280;10076;52.008;4.708;2024-03-23T02:11:50;101077.00;;;8.61;100.00
19831;BME280;10076;52.008;4.708;2024-03-23T02:14:15;101075.13;;;8.63;100.00
19831;BME280;10076;52.008;4.708;2024-03-23T02:16:42;101067.91;;;8.66;100.00
19831;BME280;10076;52.008;4.708;2024-03-23T02:19:08;101064.69;;;8.61;100.00
19831;BME280;10076;52.008;4.708;2024-03-23T02:21:33;101075.16;;;8.47;100.00
19831;BME280;10076;52.008;4.708;2024-03-23T02:24:00;101059.16;;;8.66;100.00
19831;BME280;10076;52.008;4.708;2024-03-23T02:26:25;101053.69;;;8.55;100.00
19831;BME280;10076;52.008;4.708;2024-03-23T02:28:51;101058.84;;;8.56;100.00
19831;BME280;10076;52.008;4.708;2024-03-23T02:31:16;101050.53;;;8.34;100.00
19831;BME280;10076;52.008;4.708;2024-03-23T02:33:41;101056.84;;;8.46;100.00
19831;BME280;10076;52.008;4.708;2024-03-23T02:36:07;101052.38;;;8.32;100.00
19831;BME280;10076;52.008;4.708;2024-03-23T02:38:32;101052.13;;;8.37;100.00
19831;BME280;10076;52.008;4.708;2024-03-23T02:41:02;101048.00;;;8.47;100.00
19831;BME280;10076;52.008;4.708;2024-03-23T02:43:28;101053.28;;;8.47;100.00
19831;BME280;10076;52.008;4.708;2024-03-23T02:45:53;101041.72;;;8.49;100.00
19831;BME280;10076;52.008;4.708;2024-03-23T02:48:18;101047.97;;;8.33;100.00
19831;BME280;10076;52.008;4.708;2024-03-23T02:50:44;101061.06;;;8.19;100.00
19831;BME280;10076;52.008;4.708;2024-03-23T02:53:09;101048.84;;;8.47;100.00
19831;BME280;10076;52.008;4.708;2024-03-23T02:55:35;101047.22;;;8.31;100.00
19831;BME280;10076;52.008;4.708;2024-03-23T02:58:00;101047.69;;;8.37;100.00
19831;BME280;10076;52.008;4.708;2024-03-23T03:00:27;101043.63;;;8.32;100.00
19831;BME280;10076;52.008;4.708;2024-03-23T03:02:53;101032.94;;;8.35;100.00
19831;BME280;10076;52.008;4.708;2024-03-23T03:05:18;101042.66;;;8.19;100.00
19831;BME280;10076;52.008;4.708;2024-03-23T03:07:43;101045.56;;;8.15;100.00
19831;BME280;10076;52.008;4.708;2024-03-23T03:10:09;101041.19;;;8.14;100.00
19831;BME280;10076;52.008;4.708;2024-03-23T03:12:36;101036.75;;;8.29;100.00
19831;BME280;10076;52.008;4.708;2024-03-23T03:15:03;101032.41;;;8.15;100.00
19831;BME280;10076;52.008;4.708;2024-03-23T03:17:28;101037.72;;;8.13;100.00
19831;BME280;10076;52.008;4.708;2024-03-23T03:19:54;101037.47;;;8.18;100.00
19831;BME280;10076;52.008;4.708;2024-03-23T03:22:21;101034.31;;;8.11;100.00
19831;BME280;10076;52.008;4.708;2024-03-23T03:24:46;101041.06;;;8.01;100.00
19831;BME280;10076;52.008;4.708;2024-03-23T03:27:12;101036.38;;;8.06;100.00
19831;BME280;10076;52.008;4.708;2024-03-23T03:29:37;101047.25;;;8.00;100.00
19831;BME280;10076;52.008;4.708;2024-03-23T03:32:03;101037.84;;;7.96;100.00
19831;BME280;10076;52.008;4.708;2024-03-23T03:34:28;101038.88;;;7.94;100.00
19831;BME280;10076;52.008;4.708;2024-03-23T03:36:54;101034.19;;;7.99;100.00
19831;BME280;10076;52.008;4.708;2024-03-23T03:39:19;101031.22;;;7.89;100.00
19831;BME280;10076;52.008;4.708;2024-03-23T03:41:44;101023.94;;;7.79;100.00
19831;BME280;10076;52.008;4.708;2024-03-23T03:44:10;101029.78;;;7.68;100.00
19831;BME280;10076;52.008;4.708;2024-03-23T03:46:35;101017.59;;;7.67;100.00
19831;BME280;10076;52.008;4.708;2024-03-23T03:49:00;101010.78;;;7.79;100.00
19831;BME280;10076;52.008;4.708;2024-03-23T03:51:25;101023.25;;;7.75;100.00
19831;BME280;10076;52.008;4.708;2024-03-23T03:53:51;101010.13;;;7.75;100.00
19831;BME280;10076;52.008;4.708;2024-03-23T03:56:16;101009.63;;;7.69;100.00
19831;BME280;10076;52.008;4.708;2024-03-23T03:58:41;101006.56;;;7.76;100.00
19831;BME280;10076;52.008;4.708;2024-03-23T04:01:07;101005.63;;;7.77;100.00
19831;BME280;10076;52.008;4.708;2024-03-23T04:03:32;101007.06;;;7.83;100.00
19831;BME280;10076;52.008;4.708;2024-03-23T04:05:57;100999.59;;;7.75;100.00
19831;BME280;10076;52.008;4.708;2024-03-23T04:08:23;101002.56;;;7.69;100.00
19831;BME280;10076;52.008;4.708;2024-03-23T04:10:49;101010.88;;;7.77;100.00
19831;BME280;10076;52.008;4.708;2024-03-23T04:13:15;101000.47;;;7.76;100.00
19831;BME280;10076;52.008;4.708;2024-03-23T04:15:40;101002.41;;;7.72;100.00
19831;BME280;10076;52.008;4.708;2024-03-23T04:18:06;101004.97;;;7.74;100.00
19831;BME280;10076;52.008;4.708;2024-03-23T04:20:31;100996.84;;;7.63;100.00
19831;BME280;10076;52.008;4.708;2024-03-23T04:22:57;100999.38;;;7.64;100.00
19831;BME280;10076;52.008;4.708;2024-03-23T04:25:22;100996.84;;;7.63;100.00
19831;BME280;10076;52.008;4.708;2024-03-23T04:27:48;100995.81;;;7.65;100.00
19831;BME280;10076;52.008;4.708;2024-03-23T04:30:13;100997.41;;;7.68;100.00
19831;BME280;10076;52.008;4.708;2024-03-23T04:32:39;100999.56;;;7.61;100.00
19831;BME280;10076;52.008;4.708;2024-03-23T04:35:05;100993.38;;;7.62;100.00
19831;BME280;10076;52.008;4.708;2024-03-23T04:37:37;100997.25;;;7.55;100.00
19831;BME280;10076;52.008;4.708;2024-03-23T04:40:03;100996.25;;;7.58;100.00
19831;BME280;10076;52.008;4.708;2024-03-23T04:42:29;100996.28;;;7.72;100.00
19831;BME280;10076;52.008;4.708;2024-03-23T04:44:55;100989.81;;;7.33;100.00
19831;BME280;10076;52.008;4.708;2024-03-23T04:47:20;100992.09;;;7.39;100.00
19831;BME280;10076;52.008;4.708;2024-03-23T04:49:46;101000.66;;;7.27;100.00
19831;BME280;10076;52.008;4.708;2024-03-23T04:52:11;100991.00;;;7.43;100.00
19831;BME280;10076;52.008;4.708;2024-03-23T04:54:37;100987.78;;;7.38;100.00
19831;BME280;10076;52.008;4.708;2024-03-23T04:57:03;100975.56;;;7.37;100.00
19831;BME280;10076;52.008;4.708;2024-03-23T04:59:28;100986.16;;;7.35;100.00
19831;BME280;10076;52.008;4.708;2024-03-23T05:01:53;100987.66;;;7.24;100.00
19831;BME280;10076;52.008;4.708;2024-03-23T05:04:18;100992.59;;;7.45;100.00
19831;BME280;10076;52.008;4.708;2024-03-23T05:06:44;100994.38;;;7.45;100.00
19831;BME280;10076;52.008;4.708;2024-03-23T05:09:09;100994.88;;;7.51;100.00
19831;BME280;10076;52.008;4.708;2024-03-23T05:11:39;101000.88;;;7.68;100.00
19831;BME280;10076;52.008;4.708;2024-03-23T05:14:04;101001.41;;;7.59;100.00
19831;BME280;10076;52.008;4.708;2024-03-23T05:16:30;101003.84;;;7.78;100.00
19831;BME280;10076;52.008;4.708;2024-03-23T05:18:55;101001.16;;;7.79;100.00
19831;BME280;10076;52.008;4.708;2024-03-23T05:21:21;101005.19;;;7.69;100.00
19831;BME280;10076;52.008;4.708;2024-03-23T05:23:46;101006.75;;;7.73;100.00
19831;BME280;10076;52.008;4.708;2024-03-23T05:26:12;101005.97;;;7.71;100.00
19831;BME280;10076;52.008;4.708;2024-03-23T05:28:37;100991.44;;;7.95;100.00
19831;BME280;10076;52.008;4.708;2024-03-23T05:31:03;101001.28;;;7.92;100.00
19831;BME280;10076;52.008;4.708;2024-03-23T05:33:28;100993.97;;;7.97;100.00
19831;BME280;10076;52.008;4.708;2024-03-23T05:35:57;100987.38;;;7.90;100.00
19831;BME280;10076;52.008;4.708;2024-03-23T05:38:23;100993.25;;;7.79;100.00
19831;BME280;10076;52.008;4.708;2024-03-23T05:43:20;100991.59;;;7.92;100.00
19831;BME280;10076;52.008;4.708;2024-03-23T05:45:45;100991.28;;;7.83;100.00
19831;BME280;10076;52.008;4.708;2024-03-23T05:48:11;100992.81;;;7.87;100.00
19831;BME280;10076;52.008;4.708;2024-03-23T05:50:36;100981.88;;;7.79;100.00
19831;BME280;10076;52.008;4.708;2024-03-23T05:53:02;100997.16;;;7.88;100.00
19831;BME280;10076;52.008;4.708;2024-03-23T05:55:29;100990.78;;;7.76;100.00
19831;BME280;10076;52.008;4.708;2024-03-23T05:57:55;100990.78;;;7.76;100.00
19831;BME280;10076;52.008;4.708;2024-03-23T06:00:20;100982.66;;;7.81;100.00
19831;BME280;10076;52.008;4.708;2024-03-23T06:02:45;100992.97;;;7.84;100.00
19831;BME280;10076;52.008;4.708;2024-03-23T06:05:11;100989.25;;;7.88;100.00
19831;BME280;10076;52.008;4.708;2024-03-23T06:07:38;100996.72;;;7.95;100.00
19831;BME280;10076;52.008;4.708;2024-03-23T06:10:04;100997.38;;;7.99;100.00
19831;BME280;10076;52.008;4.708;2024-03-23T06:12:30;100991.84;;;8.03;100.00
19831;BME280;10076;52.008;4.708;2024-03-23T06:14:56;100996.00;;;8.23;100.00
19831;BME280;10076;52.008;4.708;2024-03-23T06:17:21;101000.22;;;8.25;100.00
19831;BME280;10076;52.008;4.708;2024-03-23T06:19:46;100995.03;;;8.23;100.00
19831;BME280;10076;52.008;4.708;2024-03-23T06:22:12;100990.22;;;8.16;100.00
19831;BME280;10076;52.008;4.708;2024-03-23T06:24:37;100993.06;;;8.27;100.00
19831;BME280;10076;52.008;4.708;2024-03-23T06:27:03;100990.75;;;8.36;100.00
19831;BME280;10076;52.008;4.708;2024-03-23T06:29:28;100993.03;;;8.42;100.00
19831;BME280;10076;52.008;4.708;2024-03-23T06:31:54;100984.19;;;8.43;100.00
19831;BME280;10076;52.008;4.708;2024-03-23T06:34:20;100992.59;;;8.21;100.00
19831;BME280;10076;52.008;4.708;2024-03-23T06:36:46;100991.94;;;8.17;100.00
19831;BME280;10076;52.008;4.708;2024-03-23T06:39:12;100996.13;;;8.35;100.00
19831;BME280;10076;52.008;4.708;2024-03-23T06:41:41;101000.47;;;8.50;100.00
19831;BME280;10076;52.008;4.708;2024-03-23T06:44:06;101005.75;;;8.64;100.00
19831;BME280;10076;52.008;4.708;2024-03-23T06:46:31;100996.75;;;8.82;100.00
19831;BME280;10076;52.008;4.708;2024-03-23T06:48:57;101000.72;;;8.89;100.00
19831;BME280;10076;52.008;4.708;2024-03-23T06:51:22;101000.53;;;8.78;100.00
19831;BME280;10076;52.008;4.708;2024-03-23T06:53:49;100999.00;;;8.74;100.00
19831;BME280;10076;52.008;4.708;2024-03-23T06:56:15;100995.44;;;8.75;100.00
19831;BME280;10076;52.008;4.708;2024-03-23T06:58:40;101001.16;;;8.67;100.00
19831;BME280;10076;52.008;4.708;2024-03-23T07:01:05;101006.16;;;8.99;100.00
19831;BME280;10076;52.008;4.708;2024-03-23T07:03:31;100999.28;;;8.83;100.00
19831;BME280;10076;52.008;4.708;2024-03-23T07:05:59;101005.28;;;8.71;100.00
19831;BME280;10076;52.008;4.708;2024-03-23T07:08:24;100999.38;;;8.95;100.00
19831;BME280;10076;52.008;4.708;2024-03-23T07:10:50;100995.72;;;9.12;100.00
19831;BME280;10076;52.008;4.708;2024-03-23T07:13:15;100988.75;;;9.25;100.00
19831;BME280;10076;52.008;4.708;2024-03-23T07:15:42;100998.84;;;9.18;100.00
19831;BME280;10076;52.008;4.708;2024-03-23T07:18:07;101000.03;;;9.13;100.00
19831;BME280;10076;52.008;4.708;2024-03-23T07:20:32;100997.59;;;9.10;100.00
19831;BME280;10076;52.008;4.708;2024-03-23T07:22:58;100994.59;;;9.02;100.00
19831;BME280;10076;52.008;4.708;2024-03-23T07:25:23;101002.69;;;9.13;100.00
19831;BME280;10076;52.008;4.708;2024-03-23T07:27:50;101004.66;;;9.09;100.00
19831;BME280;10076;52.008;4.708;2024-03-23T07:30:15;100996.94;;;9.20;100.00
19831;BME280;10076;52.008;4.708;2024-03-23T07:32:44;100989.06;;;9.06;100.00
19831;BME280;10076;52.008;4.708;2024-03-23T07:35:09;101008.59;;;9.16;100.00
19831;BME280;10076;52.008;4.708;2024-03-23T07:37:35;101007.28;;;9.23;100.00
19831;BME280;10076;52.008;4.708;2024-03-23T07:40:00;100999.72;;;9.45;100.00
19831;BME280;10076;52.008;4.708;2024-03-23T07:42:25;101005.16;;;9.42;100.00
19831;BME280;10076;52.008;4.708;2024-03-23T07:44:51;100995.56;;;9.55;100.00
19831;BME280;10076;52.008;4.708;2024-03-23T07:47:17;100996.69;;;9.51;100.00
19831;BME280;10076;52.008;4.708;2024-03-23T07:49:42;100992.97;;;9.41;100.00
19831;BME280;10076;52.008;4.708;2024-03-23T07:52:07;100990.22;;;9.29;100.00
19831;BME280;10076;52.008;4.708;2024-03-23T07:54:33;100988.38;;;9.17;100.00
19831;BME280;10076;52.008;4.708;2024-03-23T07:56:58;100997.97;;;9.18;100.00
19831;BME280;10076;52.008;4.708;2024-03-23T07:59:23;100991.28;;;9.26;100.00
19831;BME280;10076;52.008;4.708;2024-03-23T08:01:50;100993.97;;;9.39;100.00
19831;BME280;10076;52.008;4.708;2024-03-23T08:04:15;100994.59;;;9.70;100.00
19831;BME280;10076;52.008;4.708;2024-03-23T08:06:41;100996.72;;;9.77;100.00
19831;BME280;10076;52.008;4.708;2024-03-23T08:09:06;101000.47;;;9.73;100.00
19831;BME280;10076;52.008;4.708;2024-03-23T08:11:32;101002.00;;;9.77;100.00
19831;BME280;10076;52.008;4.708;2024-03-23T08:13:59;101004.34;;;9.82;100.00
19831;BME280;10076;52.008;4.708;2024-03-23T08:16:26;101001.72;;;9.82;100.00
19831;BME280;10076;52.008;4.708;2024-03-23T08:18:52;100992.44;;;9.89;100.00
19831;BME280;10076;52.008;4.708;2024-03-23T08:21:18;100996.59;;;9.93;100.00
19831;BME280;10076;52.008;4.708;2024-03-23T08:23:43;100996.00;;;10.02;100.00
19831;BME280;10076;52.008;4.708;2024-03-23T08:26:10;100995.41;;;10.11;100.00
19831;BME280;10076;52.008;4.708;2024-03-23T08:28:36;100998.66;;;10.53;100.00
19831;BME280;10076;52.008;4.708;2024-03-23T08:31:10;100993.59;;;11.00;100.00
19831;BME280;10076;52.008;4.708;2024-03-23T08:33:36;100999.09;;;10.84;100.00
19831;BME280;10076;52.008;4.708;2024-03-23T08:36:07;101001.72;;;10.47;100.00
19831;BME280;10076;52.008;4.708;2024-03-23T08:38:33;101005.88;;;10.25;100.00
19831;BME280;10076;52.008;4.708;2024-03-23T08:41:07;100991.63;;;10.27;100.00
19831;BME280;10076;52.008;4.708;2024-03-23T08:43:35;100995.47;;;10.09;100.00
19831;BME280;10076;52.008;4.708;2024-03-23T08:46:08;100997.31;;;10.21;100.00
19831;BME280;10076;52.008;4.708;2024-03-23T08:48:43;100992.28;;;10.31;100.00
19831;BME280;10076;52.008;4.708;2024-03-23T08:51:10;100976.25;;;10.58;100.00
19831;BME280;10076;52.008;4.708;2024-03-23T08:53:36;100983.78;;;10.77;100.00
19831;BME280;10076;52.008;4.708;2024-03-23T08:56:05;100989.25;;;10.74;100.00
19831;BME280;10076;52.008;4.708;2024-03-23T08:58:32;100995.06;;;10.79;100.00
19831;BME280;10076;52.008;4.708;2024-03-23T09:01:04;100993.69;;;10.48;100.00
19831;BME280;10076;52.008;4.708;2024-03-23T09:03:30;100989.50;;;10.20;100.00
19831;BME280;10076;52.008;4.708;2024-03-23T09:05:55;101006.00;;;10.35;100.00
19831;BME280;10076;52.008;4.708;2024-03-23T09:08:21;101003.59;;;9.80;100.00
19831;BME280;10076;52.008;4.708;2024-03-23T09:10:47;101005.94;;;9.84;100.00
19831;BME280;10076;52.008;4.708;2024-03-23T09:13:13;101006.88;;;10.36;100.00
19831;BME280;10076;52.008;4.708;2024-03-23T09:15:49;100995.69;;;10.82;100.00
19831;BME280;10076;52.008;4.708;2024-03-23T09:18:14;101002.22;;;11.51;100.00
19831;BME280;10076;52.008;4.708;2024-03-23T09:20:40;100990.56;;;11.54;100.00
19831;BME280;10076;52.008;4.708;2024-03-23T09:23:05;101002.88;;;11.05;100.00
19831;BME280;10076;52.008;4.708;2024-03-23T09:25:30;100996.69;;;11.42;100.00
19831;BME280;10076;52.008;4.708;2024-03-23T09:27:56;100989.50;;;11.79;100.00
19831;BME280;10076;52.008;4.708;2024-03-23T09:30:21;100990.03;;;12.98;100.00
19831;BME280;10076;52.008;4.708;2024-03-23T09:32:48;100991.03;;;13.30;100.00
19831;BME280;10076;52.008;4.708;2024-03-23T09:35:13;100998.84;;;13.10;100.00
19831;BME280;10076;52.008;4.708;2024-03-23T09:37:39;100998.84;;;12.88;100.00
19831;BME280;10076;52.008;4.708;2024-03-23T09:40:10;100995.94;;;13.02;100.00
19831;BME280;10076;52.008;4.708;2024-03-23T09:42:36;100998.91;;;12.30;100.00
19831;BME280;10076;52.008;4.708;2024-03-23T09:45:02;100986.81;;;11.92;100.00
19831;BME280;10076;52.008;4.708;2024-03-23T09:47:27;100991.25;;;11.68;100.00
19831;BME280;10076;52.008;4.708;2024-03-23T09:49:54;100991.03;;;11.94;100.00
19831;BME280;10076;52.008;4.708;2024-03-23T09:52:19;100992.50;;;12.67;100.00
19831;BME280;10076;52.008;4.708;2024-03-23T09:54:45;100984.56;;;13.65;100.00
19831;BME280;10076;52.008;4.708;2024-03-23T09:57:10;100992.38;;;14.71;100.00
19831;BME280;10076;52.008;4.708;2024-03-23T09:59:35;100990.75;;;13.66;100.00
19831;BME280;10076;52.008;4.708;2024-03-23T10:02:01;100986.91;;;12.48;100.00
19831;BME280;10076;52.008;4.708;2024-03-23T10:04:40;100986.38;;;12.66;100.00
19831;BME280;10076;52.008;4.708;2024-03-23T10:07:14;100979.03;;;13.46;100.00
19831;BME280;10076;52.008;4.708;2024-03-23T10:09:40;100982.25;;;12.62;100.00
19831;BME280;10076;52.008;4.708;2024-03-23T10:12:13;100992.16;;;12.03;100.00
19831;BME280;10076;52.008;4.708;2024-03-23T10:14:41;100985.34;;;11.88;100.00
19831;BME280;10076;52.008;4.708;2024-03-23T10:17:20;100986.53;;;13.41;100.00
19831;BME280;10076;52.008;4.708;2024-03-23T10:19:50;100983.97;;;14.66;100.00
19831;BME280;10076;52.008;4.708;2024-03-23T10:22:20;100977.19;;;15.91;100.00
19831;BME280;10076;52.008;4.708;2024-03-23T10:24:47;100988.31;;;16.43;100.00
19831;BME280;10076;52.008;4.708;2024-03-23T10:27:22;100986.63;;;16.33;100.00
19831;BME280;10076;52.008;4.708;2024-03-23T10:29:48;100998.78;;;14.89;100.00
19831;BME280;10076;52.008;4.708;2024-03-23T10:32:15;100980.94;;;12.79;100.00
19831;BME280;10076;52.008;4.708;2024-03-23T10:34:41;100989.63;;;12.81;100.00
19831;BME280;10076;52.008;4.708;2024-03-23T10:37:07;100987.13;;;14.40;100.00
19831;BME280;10076;52.008;4.708;2024-03-23T10:39:40;100981.41;;;15.45;100.00
19831;BME280;10076;52.008;4.708;2024-03-23T10:42:08;100973.84;;;15.40;100.00
19831;BME280;10076;52.008;4.708;2024-03-23T10:44:34;100973.94;;;14.79;100.00
19831;BME280;10076;52.008;4.708;2024-03-23T10:47:04;100981.13;;;13.54;100.00
19831;BME280;10076;52.008;4.708;2024-03-23T10:49:34;100973.91;;;13.01;100.00
19831;BME280;10076;52.008;4.708;2024-03-23T10:52:01;100977.19;;;14.42;100.00
19831;BME280;10076;52.008;4.708;2024-03-23T10:54:26;100970.03;;;15.91;100.00
19831;BME280;10076;52.008;4.708;2024-03-23T10:56:58;100990.16;;;16.33;100.00
19831;BME280;10076;52.008;4.708;2024-03-23T10:59:26;100971.16;;;15.89;100.00
19831;BME280;10076;52.008;4.708;2024-03-23T11:01:58;100976.38;;;15.12;100.00
19831;BME280;10076;52.008;4.708;2024-03-23T11:04:37;100968.16;;;13.71;100.00
19831;BME280;10076;52.008;4.708;2024-03-23T11:09:48;100964.28;;;15.87;100.00
19831;BME280;10076;52.008;4.708;2024-03-23T11:17:25;100963.06;;;15.12;100.00
19831;BME280;10076;52.008;4.708;2024-03-23T11:25:16;100969.63;;;14.38;100.00
19831;BME280;10076;52.008;4.708;2024-03-23T11:27:44;100967.06;;;14.36;100.00
19831;BME280;10076;52.008;4.708;2024-03-23T11:32:46;100959.91;;;14.48;100.00
19831;BME280;10076;52.008;4.708;2024-03-23T11:40:38;100944.53;;;13.68;100.00
19831;BME280;10076;52.008;4.708;2024-03-23T11:43:05;100952.34;;;13.16;100.00
19831;BME280;10076;52.008;4.708;2024-03-23T11:45:35;100943.94;;;12.44;100.00
19831;BME280;10076;52.008;4.708;2024-03-23T11:48:11;100938.34;;;13.14;100.00
19831;BME280;10076;52.008;4.708;2024-03-23T11:50:39;100938.50;;;14.69;100.00
19831;BME280;10076;52.008;4.708;2024-03-23T11:53:20;100939.81;;;14.14;100.00
19831;BME280;10076;52.008;4.708;2024-03-23T11:58:19;100934.69;;;15.89;100.00
19831;BME280;10076;52.008;4.708;2024-03-23T12:00:57;100935.41;;;18.01;100.00
19831;BME280;10076;52.008;4.708;2024-03-23T12:03:26;100938.66;;;16.04;100.00
19831;BME280;10076;52.008;4.708;2024-03-23T12:05:55;100940.56;;;15.55;100.00
19831;BME280;10076;52.008;4.708;2024-03-23T12:08:34;100934.31;;;14.97;100.00
19831;BME280;10076;52.008;4.708;2024-03-23T12:13:31;100923.75;;;14.04;100.00
19831;BME280;10076;52.008;4.708;2024-03-23T12:16:09;100920.94;;;16.51;100.00
19831;BME280;10076;52.008;4.708;2024-03-23T12:18:35;100925.72;;;16.57;100.00
19831;BME280;10076;52.008;4.708;2024-03-23T12:21:00;100917.59;;;14.55;100.00
19831;BME280;10076;52.008;4.708;2024-03-23T12:23:26;100920.28;;;13.93;100.00
19831;BME280;10076;52.008;4.708;2024-03-23T12:25:51;100909.50;;;13.85;100.00
19831;BME280;10076;52.008;4.708;2024-03-23T12:28:16;100911.09;;;13.34;100.00
19831;BME280;10076;52.008;4.708;2024-03-23T12:30:42;100911.56;;;12.74;100.00
19831;BME280;10076;52.008;4.708;2024-03-23T12:33:07;100906.31;;;13.91;100.00
19831;BME280;10076;52.008;4.708;2024-03-23T12:35:33;100911.97;;;16.23;100.00
19831;BME280;10076;52.008;4.708;2024-03-23T12:37:59;100917.78;;;16.28;100.00
19831;BME280;10076;52.008;4.708;2024-03-23T12:40:24;100925.03;;;14.61;100.00
19831;BME280;10076;52.008;4.708;2024-03-23T12:42:50;100931.38;;;13.03;100.00
19831;BME280;10076;52.008;4.708;2024-03-23T12:45:15;100933.13;;;12.58;100.00
19831;BME280;10076;52.008;4.708;2024-03-23T12:47:40;100934.81;;;12.14;100.00
19831;BME280;10076;52.008;4.708;2024-03-23T12:50:06;100922.41;;;12.04;100.00
19831;BME280;10076;52.008;4.708;2024-03-23T12:52:32;100926.91;;;11.91;100.00
19831;BME280;10076;52.008;4.708;2024-03-23T12:54:58;100908.22;;;13.15;100.00
19831;BME280;10076;52.008;4.708;2024-03-23T12:57:24;100905.28;;;16.38;100.00
19831;BME280;10076;52.008;4.708;2024-03-23T12:59:53;100910.88;;;17.53;100.00
19831;BME280;10076;52.008;4.708;2024-03-23T13:02:22;100913.16;;;17.66;100.00
19831;BME280;10076;52.008;4.708;2024-03-23T13:04:52;100910.84;;;16.90;100.00
19831;BME280;10076;52.008;4.708;2024-03-23T13:07:18;100917.03;;;14.91;100.00
19831;BME280;10076;52.008;4.708;2024-03-23T13:09:44;100913.66;;;13.14;100.00
19831;BME280;10076;52.008;4.708;2024-03-23T13:12:10;100898.03;;;12.33;100.00
19831;BME280;10076;52.008;4.708;2024-03-23T13:14:37;100901.75;;;12.98;100.00
19831;BME280;10076;52.008;4.708;2024-03-23T13:17:03;100897.25;;;13.93;100.00
19831;BME280;10076;52.008;4.708;2024-03-23T13:19:29;100898.97;;;13.52;100.00
19831;BME280;10076;52.008;4.708;2024-03-23T13:21:59;100897.44;;;12.40;100.00
19831;BME280;10076;52.008;4.708;2024-03-23T13:24:25;100883.38;;;11.61;100.00
19831;BME280;10076;52.008;4.708;2024-03-23T13:26:52;100880.75;;;11.61;100.00
19831;BME280;10076;52.008;4.708;2024-03-23T13:29:21;100878.50;;;13.43;100.00
19831;BME280;10076;52.008;4.708;2024-03-23T13:31:47;100879.34;;;16.02;100.00
19831;BME280;10076;52.008;4.708;2024-03-23T13:34:13;100882.81;;;16.12;100.00
19831;BME280;10076;52.008;4.708;2024-03-23T13:36:41;100883.13;;;15.53;100.00
19831;BME280;10076;52.008;4.708;2024-03-23T13:39:06;100874.56;;;16.34;100.00
19831;BME280;10076;52.008;4.708;2024-03-23T13:41:40;100873.16;;;18.08;100.00
19831;BME280;10076;52.008;4.708;2024-03-23T13:44:06;100878.91;;;17.61;100.00
19831;BME280;10076;52.008;4.708;2024-03-23T13:46:33;100869.81;;;16.00;100.00
19831;BME280;10076;52.008;4.708;2024-03-23T13:48:58;100865.59;;;15.79;100.00
19831;BME280;10076;52.008;4.708;2024-03-23T13:51:25;100858.34;;;15.04;100.00
19831;BME280;10076;52.008;4.708;2024-03-23T13:53:54;100859.28;;;14.93;100.00
19831;BME280;10076;52.008;4.708;2024-03-23T13:56:24;100857.06;;;14.68;100.00
19831;BME280;10076;52.008;4.708;2024-03-23T13:58:50;100860.31;;;14.22;100.00
19831;BME280;10076;52.008;4.708;2024-03-23T14:01:16;100869.47;;;12.93;100.00
19831;BME280;10076;52.008;4.708;2024-03-23T14:03:43;100869.47;;;12.93;100.00